createdAt,value
2022-09-09T00:10:31.767Z,20.30
2022-09-09T00:25:41.362Z,20.40
2022-09-09T00:40:52.039Z,20.30
2022-09-09T00:56:03.876Z,20.30
2022-09-09T01:11:18.230Z,20.20
2022-09-09T01:26:28.593Z,20.00
2022-09-09T01:41:36.355Z,20.00
2022-09-09T01:57:00.795Z,20.20
2022-09-09T02:12:10.723Z,19.80
2022-09-09T02:27:22.780Z,19.90
2022-09-09T02:42:27.288Z,19.80
2022-09-09T02:57:34.937Z,19.70
2022-09-09T03:12:40.556Z,19.80
2022-09-09T03:27:45.157Z,19.70
2022-09-09T03:42:50.795Z,19.50
2022-09-09T03:57:55.924Z,19.70
2022-09-09T04:13:00.841Z,19.40
2022-09-09T04:28:05.795Z,19.40
2022-09-09T04:43:14.192Z,19.50
2022-09-09T04:58:22.643Z,19.80
2022-09-09T05:13:28.363Z,19.50
2022-09-09T05:28:33.084Z,19.60
2022-09-09T05:43:38.432Z,19.40
2022-09-09T05:58:44.726Z,19.60
2022-09-09T06:13:52.537Z,19.70
2022-09-09T06:28:58.812Z,19.70
2022-09-09T06:44:04.204Z,19.60
2022-09-09T06:59:19.870Z,19.70
2022-09-09T07:14:25.765Z,19.70
2022-09-09T07:29:33.932Z,19.60
2022-09-09T07:44:40.409Z,19.70
2022-09-09T07:59:49.263Z,19.80
2022-09-09T08:14:55.898Z,19.70
2022-09-09T08:30:03.163Z,20.10
2022-09-09T08:45:25.610Z,20.10
2022-09-09T09:00:42.410Z,20.30
2022-09-09T09:15:52.573Z,19.90
2022-09-09T09:30:59.928Z,20.40
2022-09-09T09:46:17.569Z,20.80
2022-09-09T10:01:26.529Z,20.60
2022-09-09T10:16:47.877Z,20.80
2022-09-09T10:32:04.793Z,20.90
2022-09-09T10:47:27.966Z,21.20
2022-09-09T11:02:34.078Z,21.60
2022-09-09T11:17:44.780Z,21.30
2022-09-09T11:33:20.448Z,21.60
2022-09-09T11:48:36.642Z,21.20
2022-09-09T12:03:45.810Z,20.80
2022-09-09T12:18:50.217Z,21.40
2022-09-09T12:33:54.853Z,20.90
2022-09-09T12:48:59.227Z,20.40
2022-09-09T13:04:04.227Z,20.70
2022-09-09T13:19:15.800Z,20.80
2022-09-09T13:34:29.430Z,20.60
2022-09-09T13:49:34.441Z,20.70
2022-09-09T14:04:38.772Z,20.70
2022-09-09T14:19:43.656Z,21.10
2022-09-09T14:34:50.514Z,22.30
2022-09-09T14:49:54.886Z,23.40
2022-09-09T15:04:59.619Z,24.20
2022-09-09T15:20:04.471Z,23.50
2022-09-09T15:35:09.688Z,28.60
2022-09-09T15:50:14.055Z,24.60
2022-09-09T16:05:18.587Z,22.50
2022-09-09T16:20:23.092Z,22.70
2022-09-09T16:35:27.444Z,21.70
2022-09-09T16:50:33.221Z,21.70
2022-09-09T17:05:43.467Z,22.90
2022-09-09T17:20:48.020Z,23.40
2022-09-09T17:35:52.303Z,22.20
2022-09-09T17:51:00.862Z,21.50
2022-09-09T18:06:10.521Z,20.70
2022-09-09T18:21:15.275Z,20.40
2022-09-09T18:36:21.432Z,20.60
2022-09-09T18:51:28.278Z,20.50
2022-09-09T19:06:33.956Z,20.40
2022-09-09T19:21:39.523Z,20.30
2022-09-09T19:36:44.372Z,20.00
2022-09-09T19:51:48.729Z,20.20
2022-09-09T20:06:53.140Z,20.10
2022-09-09T20:21:58.857Z,20.00
2022-09-09T20:37:04.645Z,19.70
2022-09-09T20:52:11.035Z,19.70
